createdAt,value
2023-02-06T00:00:44.027Z,100125.63
2023-02-06T00:03:50.912Z,100117.97
2023-02-06T00:06:59.406Z,100122.31
2023-02-06T00:10:06.297Z,100125.81
2023-02-06T00:13:12.409Z,100125.03
2023-02-06T00:16:21.373Z,100125.22
2023-02-06T00:19:27.385Z,100127.94
2023-02-06T00:22:37.182Z,100116.72
2023-02-06T00:25:43.149Z,100121.19
2023-02-06T00:28:50.609Z,100128.13
2023-02-06T00:31:56.892Z,100120.47
2023-02-06T00:35:11.125Z,100121.34
2023-02-06T00:38:22.345Z,100119.75
2023-02-06T00:41:29.126Z,100129.22
2023-02-06T00:44:35.054Z,100117.25
2023-02-06T00:47:41.855Z,100110.53
2023-02-06T00:50:50.494Z,100102.78
2023-02-06T00:53:59.978Z,100107.13
2023-02-06T00:57:05.895Z,100113.16
2023-02-06T01:00:16.041Z,100110.72
2023-02-06T01:03:21.912Z,100108.38
2023-02-06T01:06:28.769Z,100086.84
2023-02-06T01:09:37.401Z,100087.50
2023-02-06T01:12:44.298Z,100093.53
2023-02-06T01:15:52.163Z,100089.09
2023-02-06T01:18:59.367Z,100085.59
2023-02-06T01:22:05.351Z,100078.63
2023-02-06T01:25:14.905Z,100079.53
2023-02-06T01:28:21.165Z,100072.75
2023-02-06T01:31:32.025Z,100064.88
2023-02-06T01:34:37.919Z,100074.22
2023-02-06T01:37:45.323Z,100071.63
2023-02-06T01:41:00.371Z,100080.25
2023-02-06T01:44:22.702Z,100074.03
2023-02-06T01:47:30.396Z,100079.16
2023-02-06T01:50:40.367Z,100078.22
2023-02-06T01:53:56.792Z,100075.56
2023-02-06T01:57:14.545Z,100060.00
2023-02-06T02:00:27.640Z,100054.81
2023-02-06T02:03:39.997Z,100051.38
2023-02-06T02:06:47.461Z,100046.91
2023-02-06T02:09:58.749Z,100038.16
2023-02-06T02:13:17.603Z,100041.53
2023-02-06T02:16:39.770Z,100031.16
2023-02-06T02:20:48.869Z,100022.47
2023-02-06T02:24:07.943Z,100026.84
2023-02-06T02:27:47.772Z,100025.94
2023-02-06T02:31:41.318Z,100029.47
2023-02-06T02:35:25.765Z,100025.00
2023-02-06T02:38:55.057Z,100016.31
2023-02-06T02:42:14.743Z,100019.81
2023-02-06T02:45:33.329Z,100027.72
2023-02-06T02:48:47.246Z,100026.75
2023-02-06T02:51:58.666Z,100007.88
2023-02-06T02:55:23.603Z,100023.25
2023-02-06T02:58:44.796Z,100018.88
2023-02-06T03:02:02.637Z,100018.81
2023-02-06T03:05:14.754Z,100024.13
2023-02-06T03:08:47.145Z,100014.63
2023-02-06T03:12:14.670Z,100019.94
2023-02-06T03:15:34.942Z,100014.06
2023-02-06T03:18:50.078Z,100013.34
2023-02-06T03:21:57.001Z,100022.72
2023-02-06T03:25:13.316Z,100027.19
2023-02-06T03:28:31.164Z,100033.28
2023-02-06T03:31:45.882Z,100019.50
2023-02-06T03:35:06.465Z,100013.66
2023-02-06T03:38:13.860Z,100018.03
2023-02-06T03:41:34.969Z,100018.91
2023-02-06T03:44:57.520Z,100010.22
2023-02-06T03:48:18.294Z,100011.06
2023-02-06T03:51:31.919Z,100019.88
2023-02-06T03:54:46.100Z,100007.09
2023-02-06T03:58:09.031Z,100013.13
2023-02-06T04:01:17.540Z,100010.63
2023-02-06T04:04:29.372Z,100008.25
2023-02-06T04:07:43.063Z,100011.75
2023-02-06T04:10:49.546Z,100017.06
2023-02-06T04:13:58.920Z,100018.84
2023-02-06T04:17:09.799Z,100000.16
2023-02-06T04:20:17.106Z,100014.69
2023-02-06T04:23:24.291Z,100023.34
2023-02-06T04:26:31.201Z,100024.28
2023-02-06T04:29:39.724Z,100024.34
2023-02-06T04:32:46.786Z,100021.84
2023-02-06T04:35:52.726Z,100016.69
2023-02-06T04:38:59.549Z,100018.41
2023-02-06T04:42:05.836Z,100024.50
2023-02-06T04:45:15.745Z,100019.38
2023-02-06T04:48:24.714Z,100018.44
2023-02-06T04:51:31.491Z,100021.88
2023-02-06T04:54:37.459Z,100028.88
2023-02-06T04:57:44.539Z,100025.50
2023-02-06T05:00:58.452Z,100026.34
2023-02-06T05:04:05.460Z,100033.41
2023-02-06T05:07:11.379Z,100029.09
2023-02-06T05:10:18.691Z,100027.28
2023-02-06T05:13:30.480Z,100029.91
2023-02-06T05:16:39.901Z,100029.03
2023-02-06T05:19:46.119Z,100023.88
2023-02-06T05:22:52.902Z,100029.81
2023-02-06T05:25:59.806Z,100023.75
2023-02-06T05:29:27.770Z,100033.16
2023-02-06T05:32:36.266Z,100019.28
2023-02-06T05:35:43.904Z,100022.66
2023-02-06T05:38:54.122Z,100026.03
2023-02-06T05:42:00.960Z,100023.47
2023-02-06T05:45:08.586Z,100017.47
2023-02-06T05:48:17.933Z,100014.88
2023-02-06T05:51:23.778Z,100025.94
2023-02-06T05:54:30.615Z,100012.13
2023-02-06T05:57:36.693Z,100021.59
2023-02-06T06:00:51.493Z,100025.03
2023-02-06T06:04:09.723Z,100016.22
2023-02-06T06:07:16.691Z,100023.81
2023-02-06T06:10:22.940Z,100019.19
2023-02-06T06:13:30.611Z,100023.38
2023-02-06T06:16:41.788Z,100025.94
2023-02-06T06:19:51.225Z,100038.00
2023-02-06T06:22:57.338Z,100033.69
2023-02-06T06:26:04.139Z,100045.59
2023-02-06T06:29:15.179Z,100040.09
2023-02-06T06:32:22.488Z,100028.88
2023-02-06T06:35:31.180Z,100035.44
2023-02-06T06:38:38.707Z,100041.41
2023-02-06T06:41:44.950Z,100040.34
2023-02-06T06:44:51.799Z,100051.56
2023-02-06T06:47:57.914Z,100048.97
2023-02-06T06:51:07.841Z,100044.56
2023-02-06T06:54:14.702Z,100039.22
2023-02-06T06:57:23.828Z,100039.84
2023-02-06T07:00:41.422Z,100036.13
2023-02-06T07:03:49.265Z,100040.78
2023-02-06T07:06:57.877Z,100040.59
2023-02-06T07:10:04.867Z,100030.28
2023-02-06T07:13:11.027Z,100043.25
2023-02-06T07:16:17.910Z,100042.50
2023-02-06T07:19:24.308Z,100038.84
2023-02-06T07:22:51.528Z,100033.06
2023-02-06T07:26:08.902Z,100048.66
2023-02-06T07:29:27.213Z,100037.53
2023-02-06T07:32:33.999Z,100036.53
2023-02-06T07:35:39.853Z,100036.94
2023-02-06T07:38:51.249Z,100032.66
2023-02-06T07:41:57.290Z,100040.66
2023-02-06T07:45:17.152Z,100037.25
2023-02-06T07:48:23.215Z,100040.59
2023-02-06T07:51:33.042Z,100040.06
2023-02-06T07:54:41.643Z,100035.63
2023-02-06T07:57:48.490Z,100027.56
2023-02-06T08:00:54.963Z,100030.72
2023-02-06T08:04:08.897Z,100028.41
2023-02-06T08:07:16.713Z,100032.22
2023-02-06T08:10:32.929Z,100038.75
2023-02-06T08:13:43.070Z,100028.03
2023-02-06T08:16:49.884Z,100030.59
2023-02-06T08:20:06.837Z,100031.81
2023-02-06T08:23:13.607Z,100042.03
2023-02-06T08:26:22.380Z,100026.97
2023-02-06T08:29:30.041Z,100038.38
2023-02-06T08:32:39.481Z,100030.72
2023-02-06T08:35:52.378Z,100039.78
2023-02-06T08:39:09.873Z,100042.84
2023-02-06T08:42:19.273Z,100050.28
2023-02-06T08:45:30.426Z,100052.94
2023-02-06T08:48:37.248Z,100043.34
2023-02-06T08:51:44.372Z,100032.94
2023-02-06T08:54:54.135Z,100047.56
2023-02-06T08:58:08.901Z,100048.56
2023-02-06T09:01:26.731Z,100053.47
2023-02-06T09:04:35.759Z,100058.09
2023-02-06T09:07:42.514Z,100056.13
2023-02-06T09:10:48.420Z,100050.56
2023-02-06T09:14:01.303Z,100050.38
2023-02-06T09:17:07.478Z,100053.59
2023-02-06T09:20:14.585Z,100054.00
2023-02-06T09:23:20.826Z,100053.69
2023-02-06T09:26:30.918Z,100050.59
2023-02-06T09:29:39.670Z,100051.91
2023-02-06T09:32:46.707Z,100058.34
2023-02-06T09:35:52.746Z,100058.03
2023-02-06T09:39:00.796Z,100071.91
2023-02-06T09:42:15.072Z,100063.31
2023-02-06T09:45:30.395Z,100061.34
2023-02-06T09:48:42.325Z,100064.50
2023-02-06T09:52:29.240Z,100062.78
2023-02-06T09:55:47.511Z,100060.41
2023-02-06T09:59:07.541Z,100063.25
2023-02-06T10:02:47.932Z,100055.97
2023-02-06T10:06:14.381Z,100057.09
2023-02-06T10:09:31.612Z,100048.06
2023-02-06T10:12:47.995Z,100044.16
2023-02-06T10:16:02.286Z,100049.41
2023-02-06T10:19:24.472Z,100044.75
2023-02-06T10:22:42.071Z,100042.25
2023-02-06T10:26:17.590Z,100038.88
2023-02-06T10:29:31.876Z,100039.13
2023-02-06T10:32:54.198Z,100047.75
2023-02-06T10:36:25.617Z,100039.44
2023-02-06T10:40:04.361Z,100043.16
2023-02-06T10:43:29.354Z,100044.72
2023-02-06T10:46:48.433Z,100041.56
2023-02-06T10:50:05.050Z,100034.81
2023-02-06T10:53:25.112Z,100037.13
2023-02-06T10:56:38.804Z,100028.81
2023-02-06T10:59:57.740Z,100023.75
2023-02-06T11:03:11.015Z,100020.63
2023-02-06T11:06:26.008Z,100018.34
2023-02-06T11:09:40.245Z,100020.63
2023-02-06T11:13:03.944Z,100022.84
2023-02-06T11:16:23.660Z,100021.41
2023-02-06T11:19:40.603Z,100022.63
2023-02-06T11:22:53.012Z,100017.69
2023-02-06T11:26:17.493Z,100012.44
2023-02-06T11:29:30.000Z,100019.78
2023-02-06T11:32:52.901Z,100014.81
2023-02-06T11:36:33.021Z,100011.09
2023-02-06T11:39:42.608Z,100014.97
2023-02-06T11:42:55.664Z,100016.19
2023-02-06T11:46:21.615Z,100020.13
2023-02-06T11:49:31.945Z,100019.22
2023-02-06T11:52:38.983Z,100014.03
2023-02-06T11:55:45.623Z,100013.13
2023-02-06T11:59:14.890Z,100010.47
2023-02-06T12:02:36.674Z,99997.69
2023-02-06T12:05:47.357Z,99996.31
2023-02-06T12:08:56.620Z,100001.31
2023-02-06T12:12:13.331Z,99997.59
2023-02-06T12:15:45.369Z,99993.97
2023-02-06T12:19:00.683Z,100005.44
2023-02-06T12:22:21.613Z,99992.22
2023-02-06T12:25:36.107Z,99995.41
2023-02-06T12:28:57.827Z,100000.13
2023-02-06T12:32:18.379Z,100001.00
2023-02-06T12:35:45.425Z,99992.06
2023-02-06T12:39:01.304Z,100001.19
2023-02-06T12:42:37.218Z,99994.03
2023-02-06T12:45:55.211Z,100003.31
2023-02-06T12:49:18.831Z,100007.66
2023-02-06T12:52:34.579Z,100002.53
2023-02-06T12:56:00.631Z,100003.53
2023-02-06T13:00:10.960Z,99994.34
2023-02-06T13:03:30.446Z,100000.50
2023-02-06T13:07:02.727Z,100003.38
2023-02-06T13:10:30.057Z,99985.19
2023-02-06T13:13:43.749Z,100003.56
2023-02-06T13:16:58.435Z,100005.03
2023-02-06T13:20:17.860Z,100009.88
2023-02-06T13:23:29.568Z,100013.25
2023-02-06T13:27:16.728Z,100026.97
2023-02-06T13:30:51.070Z,100011.41
2023-02-06T13:34:04.443Z,100013.50
2023-02-06T13:37:30.925Z,100014.59
2023-02-06T13:40:40.825Z,100008.78
2023-02-06T13:43:57.111Z,100022.72
2023-02-06T13:47:34.885Z,100013.84
2023-02-06T13:51:17.028Z,100024.22
2023-02-06T13:55:06.218Z,100023.34
2023-02-06T13:58:48.808Z,100022.97
2023-02-06T14:01:57.611Z,100026.53
2023-02-06T14:05:07.991Z,100023.19
2023-02-06T14:08:30.588Z,100031.56
2023-02-06T14:12:17.997Z,100035.34
2023-02-06T14:15:45.143Z,100034.84
2023-02-06T14:19:09.075Z,100009.06
2023-02-06T14:22:38.189Z,100026.09
2023-02-06T14:26:16.000Z,100028.69
2023-02-06T14:29:49.069Z,100039.44
2023-02-06T14:33:19.625Z,100046.75
2023-02-06T14:37:04.001Z,100034.53
2023-02-06T14:40:22.674Z,100036.97
2023-02-06T14:43:38.278Z,100044.75
2023-02-06T14:46:45.297Z,100048.22
2023-02-06T14:49:58.331Z,100043.06
2023-02-06T14:53:12.632Z,100045.34
2023-02-06T14:56:27.165Z,100049.47
2023-02-06T14:59:34.129Z,100045.47
2023-02-06T15:02:41.328Z,100042.25
2023-02-06T15:05:50.448Z,100046.72
2023-02-06T15:08:57.761Z,100051.47
2023-02-06T15:12:21.536Z,100055.84
2023-02-06T15:15:32.357Z,100052.03
2023-02-06T15:18:40.449Z,100044.34
2023-02-06T15:21:50.927Z,100052.25
2023-02-06T15:25:22.112Z,100050.97
2023-02-06T15:28:33.914Z,100046.84
2023-02-06T15:31:39.988Z,100063.88
2023-02-06T15:34:49.916Z,100064.81
2023-02-06T15:37:59.731Z,100063.16
2023-02-06T15:41:11.632Z,100072.84
2023-02-06T15:44:31.276Z,100067.72
2023-02-06T15:47:39.280Z,100073.97
2023-02-06T15:50:57.359Z,100080.25
2023-02-06T15:54:23.851Z,100089.94
2023-02-06T15:57:36.657Z,100087.84
2023-02-06T16:00:45.625Z,100092.25
2023-02-06T16:04:01.476Z,100096.59
2023-02-06T16:07:19.367Z,100099.38
2023-02-06T16:10:32.120Z,100097.88
2023-02-06T16:13:40.216Z,100097.13
2023-02-06T16:17:01.363Z,100087.88
2023-02-06T16:20:33.407Z,100092.22
2023-02-06T16:23:49.850Z,100094.91
2023-02-06T16:26:59.499Z,100097.69
2023-02-06T16:30:06.356Z,100102.09
2023-02-06T16:33:28.961Z,100100.44
2023-02-06T16:36:36.411Z,100105.81
2023-02-06T16:39:45.541Z,100102.53
2023-02-06T16:42:54.319Z,100103.69
2023-02-06T16:46:02.872Z,100101.97
2023-02-06T16:49:15.148Z,100109.94
2023-02-06T16:52:28.473Z,100115.16
2023-02-06T16:55:34.699Z,100123.03
2023-02-06T16:58:46.729Z,100111.06
2023-02-06T17:01:52.840Z,100116.25
2023-02-06T17:05:00.008Z,100126.72
2023-02-06T17:08:16.579Z,100134.75
2023-02-06T17:11:23.437Z,100145.91
2023-02-06T17:14:34.896Z,100142.50
2023-02-06T17:17:43.032Z,100146.78
2023-02-06T17:20:53.731Z,100146.78
2023-02-06T17:24:00.657Z,100147.81
2023-02-06T17:27:07.467Z,100145.22
2023-02-06T17:30:22.837Z,100143.63
2023-02-06T17:33:28.962Z,100137.63
2023-02-06T17:36:39.804Z,100130.03
2023-02-06T17:39:45.866Z,100136.06
2023-02-06T17:42:53.787Z,100143.06
2023-02-06T17:46:02.528Z,100148.31
2023-02-06T17:49:09.558Z,100151.81
2023-02-06T17:52:16.488Z,100150.22
2023-02-06T17:55:24.020Z,100152.88
2023-02-06T17:58:33.464Z,100139.13
2023-02-06T18:01:43.373Z,100146.91
2023-02-06T18:04:53.613Z,100152.13
2023-02-06T18:08:01.192Z,100153.09
2023-02-06T18:11:12.304Z,100149.75
2023-02-06T18:14:21.103Z,100152.41
2023-02-06T18:17:31.129Z,100161.13
2023-02-06T18:20:39.449Z,100171.66
2023-02-06T18:23:46.591Z,100164.69
2023-02-06T18:26:53.487Z,100173.44
2023-02-06T18:29:59.870Z,100174.56
2023-02-06T18:33:09.649Z,100170.44
2023-02-06T18:36:15.945Z,100170.44
2023-02-06T18:39:23.400Z,100166.06
2023-02-06T18:42:42.872Z,100165.22
2023-02-06T18:46:10.203Z,100164.44
2023-02-06T18:49:33.541Z,100175.69
2023-02-06T18:52:54.408Z,100171.41
2023-02-06T18:56:18.754Z,100170.69
2023-02-06T18:59:42.668Z,100168.16
2023-02-06T19:03:03.632Z,100167.47
2023-02-06T19:06:32.148Z,100167.59
2023-02-06T19:10:00.888Z,100164.44
2023-02-06T19:13:21.513Z,100168.94
2023-02-06T19:16:47.555Z,100159.28
2023-02-06T19:20:11.081Z,100161.88
2023-02-06T19:23:35.145Z,100161.16
2023-02-06T19:26:56.734Z,100157.09
2023-02-06T19:30:17.977Z,100155.41
2023-02-06T19:33:43.837Z,100164.97
2023-02-06T19:37:04.708Z,100163.41
2023-02-06T19:40:28.119Z,100182.50
2023-02-06T19:43:49.554Z,100185.94
2023-02-06T19:47:10.366Z,100186.91
2023-02-06T19:50:31.170Z,100190.28
2023-02-06T19:53:53.844Z,100185.00
2023-02-06T19:57:19.591Z,100174.69
2023-02-06T20:00:40.610Z,100180.91
2023-02-06T20:04:04.081Z,100182.69
2023-02-06T20:07:24.878Z,100179.22
2023-02-06T20:10:45.769Z,100176.66
2023-02-06T20:14:09.617Z,100175.75
2023-02-06T20:17:33.179Z,100173.22
2023-02-06T20:20:53.956Z,100180.16
2023-02-06T20:24:25.477Z,100175.19
2023-02-06T20:27:46.298Z,100182.13
2023-02-06T20:31:14.731Z,100196.06
2023-02-06T20:34:36.154Z,100208.19
2023-02-06T20:38:08.884Z,100215.09
2023-02-06T20:41:33.164Z,100227.22
2023-02-06T20:44:54.032Z,100221.22
2023-02-06T20:48:17.726Z,100220.41
2023-02-06T20:51:38.808Z,100227.28
2023-02-06T20:55:02.360Z,100229.03
2023-02-06T20:58:23.527Z,100231.59
2023-02-06T21:01:45.451Z,100245.47
2023-02-06T21:05:09.645Z,100248.94
2023-02-06T21:08:33.560Z,100259.22
2023-02-06T21:11:57.618Z,100256.69
2023-02-06T21:15:21.417Z,100254.91
2023-02-06T21:18:42.926Z,100254.03
2023-02-06T21:22:07.108Z,100256.75
2023-02-06T21:25:28.650Z,100253.44
2023-02-06T21:28:50.248Z,100264.53
2023-02-06T21:32:14.636Z,100263.69
2023-02-06T21:35:37.112Z,100275.72
2023-02-06T21:39:00.964Z,100277.53
2023-02-06T21:42:26.433Z,100274.06
2023-02-06T21:45:50.128Z,100279.19
2023-02-06T21:49:11.871Z,100287.91
2023-02-06T21:52:32.654Z,100295.69
2023-02-06T21:55:55.943Z,100298.31
2023-02-06T21:59:16.957Z,100296.59
2023-02-06T22:02:37.607Z,100305.19
2023-02-06T22:06:12.710Z,100314.72
2023-02-06T22:09:33.662Z,100325.94
2023-02-06T22:12:57.097Z,100328.53
2023-02-06T22:16:21.804Z,100324.22
2023-02-06T22:19:42.716Z,100338.88
2023-02-06T22:23:06.664Z,100338.06
2023-02-06T22:26:30.353Z,100344.94
2023-02-06T22:29:53.618Z,100336.34
2023-02-06T22:33:14.276Z,100348.41
2023-02-06T22:36:38.034Z,100345.00
2023-02-06T22:39:59.283Z,100349.25
2023-02-06T22:43:19.975Z,100341.56
2023-02-06T22:46:43.478Z,100338.16
2023-02-06T22:50:04.108Z,100329.53
2023-02-06T22:53:35.160Z,100319.22
2023-02-06T22:56:55.857Z,100323.53
2023-02-06T23:00:18.697Z,100332.09
2023-02-06T23:03:41.997Z,100326.06
2023-02-06T23:07:06.183Z,100315.75
2023-02-06T23:10:33.014Z,100309.72
2023-02-06T23:13:56.401Z,100319.19
2023-02-06T23:17:17.085Z,100309.72
2023-02-06T23:20:42.016Z,100301.97
2023-02-06T23:24:03.232Z,100280.44
2023-02-06T23:27:25.518Z,100287.28
2023-02-06T23:30:46.324Z,100282.13
2023-02-06T23:34:07.325Z,100277.81
2023-02-06T23:37:30.622Z,100279.59
2023-02-06T23:40:51.600Z,100270.94
2023-02-06T23:44:18.358Z,100277.78
2023-02-06T23:47:39.778Z,100266.56
2023-02-06T23:51:00.781Z,100267.47
2023-02-06T23:54:24.640Z,100276.03
2023-02-06T23:57:45.387Z,100276.00
